sensor_id;sensor_type;location;lat;lon;timestamp;P1;durP1;ratioP1;P2;durP2;ratioP2
65545;SDS011;52177;55.968;37.498;2023-07-30T00:00:23;12.13;;;10.07;;
65545;SDS011;52177;55.968;37.498;2023-07-30T00:00:53;9.77;;;8.85;;
65545;SDS011;52177;55.968;37.498;2023-07-30T00:01:24;13.90;;;9.32;;
65545;SDS011;52177;55.968;37.498;2023-07-30T00:01:54;10.65;;;9.38;;
65545;SDS011;52177;55.968;37.498;2023-07-30T00:02:25;9.77;;;8.55;;
65545;SDS011;52177;55.968;37.498;2023-07-30T00:02:55;11.32;;;9.00;;
65545;SDS011;52177;55.968;37.498;2023-07-30T00:03:26;14.00;;;9.18;;
65545;SDS011;52177;55.968;37.498;2023-07-30T00:03:56;10.43;;;8.63;;
65545;SDS011;52177;55.968;37.498;2023-07-30T00:04:27;10.75;;;9.00;;
65545;SDS011;52177;55.968;37.498;2023-07-30T00:04:57;12.38;;;8.50;;
65545;SDS011;52177;55.968;37.498;2023-07-30T00:05:28;11.05;;;8.95;;
65545;SDS011;52177;55.968;37.498;2023-07-30T00:05:58;10.27;;;9.30;;
65545;SDS011;52177;55.968;37.498;2023-07-30T00:06:28;9.43;;;8.52;;
65545;SDS011;52177;55.968;37.498;2023-07-30T00:06:59;10.90;;;9.80;;
65545;SDS011;52177;55.968;37.498;2023-07-30T00:07:29;11.20;;;8.77;;
65545;SDS011;52177;55.968;37.498;2023-07-30T00:08:00;12.35;;;9.25;;
65545;SDS011;52177;55.968;37.498;2023-07-30T00:08:30;10.88;;;9.63;;
65545;SDS011;52177;55.968;37.498;2023-07-30T00:09:00;11.77;;;9.10;;
65545;SDS011;52177;55.968;37.498;2023-07-30T00:09:31;10.85;;;9.60;;
65545;SDS011;52177;55.968;37.498;2023-07-30T00:10:01;10.23;;;8.95;;
65545;SDS011;52177;55.968;37.498;2023-07-30T00:10:32;9.80;;;8.90;;
65545;SDS011;52177;55.968;37.498;2023-07-30T00:11:05;13.18;;;9.45;;
65545;SDS011;52177;55.968;37.498;2023-07-30T00:11:35;11.30;;;9.20;;
65545;SDS011;52177;55.968;37.498;2023-07-30T00:12:06;12.25;;;10.13;;
65545;SDS011;52177;55.968;37.498;2023-07-30T00:12:37;12.18;;;10.30;;
65545;SDS011;52177;55.968;37.498;2023-07-30T00:13:08;10.85;;;9.75;;
65545;SDS011;52177;55.968;37.498;2023-07-30T00:13:38;12.30;;;9.52;;
65545;SDS011;52177;55.968;37.498;2023-07-30T00:14:09;13.07;;;10.10;;
65545;SDS011;52177;55.968;37.498;2023-07-30T00:14:39;9.70;;;8.68;;
65545;SDS011;52177;55.968;37.498;2023-07-30T00:15:09;11.95;;;9.40;;
65545;SDS011;52177;55.968;37.498;2023-07-30T00:15:40;9.90;;;8.90;;
65545;SDS011;52177;55.968;37.498;2023-07-30T00:16:11;11.40;;;9.88;;
65545;SDS011;52177;55.968;37.498;2023-07-30T00:16:41;12.20;;;10.00;;
65545;SDS011;52177;55.968;37.498;2023-07-30T00:17:11;13.13;;;10.05;;
65545;SDS011;52177;55.968;37.498;2023-07-30T00:17:42;13.50;;;10.30;;
65545;SDS011;52177;55.968;37.498;2023-07-30T00:18:12;12.20;;;9.52;;
65545;SDS011;52177;55.968;37.498;2023-07-30T00:18:43;12.73;;;9.63;;
65545;SDS011;52177;55.968;37.498;2023-07-30T00:19:13;11.68;;;9.93;;
65545;SDS011;52177;55.968;37.498;2023-07-30T00:19:44;17.33;;;10.35;;
65545;SDS011;52177;55.968;37.498;2023-07-30T00:20:14;11.27;;;10.05;;
65545;SDS011;52177;55.968;37.498;2023-07-30T00:20:45;11.43;;;9.52;;
65545;SDS011;52177;55.968;37.498;2023-07-30T00:21:15;10.95;;;9.70;;
65545;SDS011;52177;55.968;37.498;2023-07-30T00:21:45;10.40;;;9.35;;
65545;SDS011;52177;55.968;37.498;2023-07-30T00:22:16;10.80;;;9.50;;
65545;SDS011;52177;55.968;37.498;2023-07-30T00:22:47;9.70;;;8.65;;
65545;SDS011;52177;55.968;37.498;2023-07-30T00:23:17;12.23;;;9.48;;
65545;SDS011;52177;55.968;37.498;2023-07-30T00:23:47;10.80;;;8.95;;
65545;SDS011;52177;55.968;37.498;2023-07-30T00:24:18;12.27;;;9.25;;
65545;SDS011;52177;55.968;37.498;2023-07-30T00:24:48;10.93;;;9.25;;
65545;SDS011;52177;55.968;37.498;2023-07-30T00:25:19;11.57;;;9.65;;
65545;SDS011;52177;55.968;37.498;2023-07-30T00:25:49;11.65;;;8.95;;
65545;SDS011;52177;55.968;37.498;2023-07-30T00:26:19;17.75;;;9.38;;
65545;SDS011;52177;55.968;37.498;2023-07-30T00:26:50;11.40;;;8.88;;
65545;SDS011;52177;55.968;37.498;2023-07-30T00:27:20;10.05;;;9.00;;
65545;SDS011;52177;55.968;37.498;2023-07-30T00:27:51;16.92;;;10.00;;
65545;SDS011;52177;55.968;37.498;2023-07-30T00:28:21;10.85;;;9.20;;
65545;SDS011;52177;55.968;37.498;2023-07-30T00:28:51;10.27;;;9.25;;
65545;SDS011;52177;55.968;37.498;2023-07-30T00:29:22;12.50;;;9.48;;
65545;SDS011;52177;55.968;37.498;2023-07-30T00:29:52;12.25;;;9.50;;
65545;SDS011;52177;55.968;37.498;2023-07-30T00:30:23;11.60;;;9.60;;
65545;SDS011;52177;55.968;37.498;2023-07-30T00:30:53;14.63;;;9.65;;
65545;SDS011;52177;55.968;37.498;2023-07-30T00:31:23;12.32;;;9.18;;
65545;SDS011;52177;55.968;37.498;2023-07-30T00:31:54;10.77;;;9.43;;
65545;SDS011;52177;55.968;37.498;2023-07-30T00:32:24;15.80;;;10.30;;
65545;SDS011;52177;55.968;37.498;2023-07-30T00:32:55;11.57;;;9.30;;
65545;SDS011;52177;55.968;37.498;2023-07-30T00:33:25;10.32;;;9.20;;
65545;SDS011;52177;55.968;37.498;2023-07-30T00:33:55;11.68;;;8.57;;
65545;SDS011;52177;55.968;37.498;2023-07-30T00:34:26;9.88;;;8.63;;
65545;SDS011;52177;55.968;37.498;2023-07-30T00:34:56;12.77;;;9.35;;
65545;SDS011;52177;55.968;37.498;2023-07-30T00:35:27;9.82;;;8.82;;
65545;SDS011;52177;55.968;37.498;2023-07-30T00:35:57;10.07;;;8.65;;
65545;SDS011;52177;55.968;37.498;2023-07-30T00:36:27;12.35;;;9.10;;
65545;SDS011;52177;55.968;37.498;2023-07-30T00:36:58;13.38;;;8.88;;
65545;SDS011;52177;55.968;37.498;2023-07-30T00:37:28;12.32;;;8.60;;
65545;SDS011;52177;55.968;37.498;2023-07-30T00:37:59;12.43;;;9.52;;
65545;SDS011;52177;55.968;37.498;2023-07-30T00:38:29;11.60;;;8.93;;
65545;SDS011;52177;55.968;37.498;2023-07-30T00:38:59;13.23;;;9.88;;
65545;SDS011;52177;55.968;37.498;2023-07-30T00:39:30;9.80;;;8.63;;
65545;SDS011;52177;55.968;37.498;2023-07-30T00:40:01;10.23;;;8.82;;
65545;SDS011;52177;55.968;37.498;2023-07-30T00:40:32;16.98;;;11.68;;
65545;SDS011;52177;55.968;37.498;2023-07-30T00:41:03;20.55;;;12.13;;
65545;SDS011;52177;55.968;37.498;2023-07-30T00:41:33;10.38;;;9.32;;
65545;SDS011;52177;55.968;37.498;2023-07-30T00:42:04;11.75;;;10.07;;
65545;SDS011;52177;55.968;37.498;2023-07-30T00:42:34;11.32;;;9.50;;
65545;SDS011;52177;55.968;37.498;2023-07-30T00:43:05;13.98;;;10.02;;
65545;SDS011;52177;55.968;37.498;2023-07-30T00:43:35;11.95;;;9.25;;
65545;SDS011;52177;55.968;37.498;2023-07-30T00:44:06;13.02;;;8.63;;
65545;SDS011;52177;55.968;37.498;2023-07-30T00:44:36;10.38;;;9.27;;
65545;SDS011;52177;55.968;37.498;2023-07-30T00:45:07;9.98;;;8.80;;
65545;SDS011;52177;55.968;37.498;2023-07-30T00:45:38;9.77;;;8.50;;
65545;SDS011;52177;55.968;37.498;2023-07-30T00:46:11;9.90;;;8.65;;
65545;SDS011;52177;55.968;37.498;2023-07-30T00:46:42;13.65;;;9.30;;
65545;SDS011;52177;55.968;37.498;2023-07-30T00:47:13;10.23;;;8.40;;
65545;SDS011;52177;55.968;37.498;2023-07-30T00:47:43;10.13;;;8.73;;
65545;SDS011;52177;55.968;37.498;2023-07-30T00:48:14;10.75;;;8.90;;
65545;SDS011;52177;55.968;37.498;2023-07-30T00:48:45;11.57;;;9.07;;
65545;SDS011;52177;55.968;37.498;2023-07-30T00:49:15;9.50;;;8.45;;
65545;SDS011;52177;55.968;37.498;2023-07-30T00:49:46;11.77;;;8.00;;
65545;SDS011;52177;55.968;37.498;2023-07-30T00:50:17;8.55;;;7.75;;
65545;SDS011;52177;55.968;37.498;2023-07-30T00:50:47;13.30;;;8.20;;
65545;SDS011;52177;55.968;37.498;2023-07-30T00:51:18;10.48;;;8.27;;
65545;SDS011;52177;55.968;37.498;2023-07-30T00:51:50;11.82;;;7.95;;
65545;SDS011;52177;55.968;37.498;2023-07-30T00:52:21;10.73;;;8.70;;
65545;SDS011;52177;55.968;37.498;2023-07-30T00:52:52;10.18;;;8.38;;
65545;SDS011;52177;55.968;37.498;2023-07-30T00:53:22;11.82;;;8.80;;
65545;SDS011;52177;55.968;37.498;2023-07-30T00:53:54;9.85;;;8.55;;
65545;SDS011;52177;55.968;37.498;2023-07-30T00:54:24;10.65;;;8.07;;
65545;SDS011;52177;55.968;37.498;2023-07-30T00:54:56;11.18;;;8.13;;
65545;SDS011;52177;55.968;37.498;2023-07-30T00:55:28;10.70;;;8.52;;
65545;SDS011;52177;55.968;37.498;2023-07-30T00:55:58;12.57;;;8.98;;
65545;SDS011;52177;55.968;37.498;2023-07-30T00:56:28;9.93;;;8.10;;
65545;SDS011;52177;55.968;37.498;2023-07-30T00:57:00;9.73;;;8.18;;
65545;SDS011;52177;55.968;37.498;2023-07-30T00:57:31;11.32;;;8.32;;
65545;SDS011;52177;55.968;37.498;2023-07-30T00:58:02;10.30;;;7.85;;
65545;SDS011;52177;55.968;37.498;2023-07-30T00:58:33;15.57;;;8.55;;
65545;SDS011;52177;55.968;37.498;2023-07-30T00:59:05;10.88;;;8.10;;
65545;SDS011;52177;55.968;37.498;2023-07-30T00:59:35;11.88;;;8.00;;
65545;SDS011;52177;55.968;37.498;2023-07-30T01:00:06;9.88;;;8.93;;
65545;SDS011;52177;55.968;37.498;2023-07-30T01:00:39;10.63;;;8.60;;
65545;SDS011;52177;55.968;37.498;2023-07-30T01:01:10;9.82;;;8.63;;
65545;SDS011;52177;55.968;37.498;2023-07-30T01:01:41;9.10;;;7.60;;
65545;SDS011;52177;55.968;37.498;2023-07-30T01:02:13;8.98;;;8.07;;
65545;SDS011;52177;55.968;37.498;2023-07-30T01:02:43;8.55;;;7.75;;
65545;SDS011;52177;55.968;37.498;2023-07-30T01:03:14;12.25;;;8.63;;
65545;SDS011;52177;55.968;37.498;2023-07-30T01:03:44;10.18;;;8.30;;
65545;SDS011;52177;55.968;37.498;2023-07-30T01:04:15;10.38;;;8.45;;
65545;SDS011;52177;55.968;37.498;2023-07-30T01:04:45;13.05;;;8.65;;
65545;SDS011;52177;55.968;37.498;2023-07-30T01:05:16;11.30;;;8.32;;
65545;SDS011;52177;55.968;37.498;2023-07-30T01:05:46;9.48;;;8.13;;
65545;SDS011;52177;55.968;37.498;2023-07-30T01:06:17;9.35;;;8.32;;
65545;SDS011;52177;55.968;37.498;2023-07-30T01:06:49;12.07;;;8.32;;
65545;SDS011;52177;55.968;37.498;2023-07-30T01:07:20;9.32;;;8.43;;
65545;SDS011;52177;55.968;37.498;2023-07-30T01:07:50;9.35;;;7.63;;
65545;SDS011;52177;55.968;37.498;2023-07-30T01:08:21;10.38;;;7.75;;
65545;SDS011;52177;55.968;37.498;2023-07-30T01:08:51;10.32;;;8.00;;
65545;SDS011;52177;55.968;37.498;2023-07-30T01:09:22;12.07;;;7.95;;
65545;SDS011;52177;55.968;37.498;2023-07-30T01:09:53;9.07;;;7.45;;
65545;SDS011;52177;55.968;37.498;2023-07-30T01:10:23;9.20;;;8.30;;
65545;SDS011;52177;55.968;37.498;2023-07-30T01:10:55;11.60;;;8.55;;
65545;SDS011;52177;55.968;37.498;2023-07-30T01:11:27;9.05;;;7.80;;
65545;SDS011;52177;55.968;37.498;2023-07-30T01:11:59;10.48;;;8.10;;
65545;SDS011;52177;55.968;37.498;2023-07-30T01:12:32;8.75;;;7.95;;
65545;SDS011;52177;55.968;37.498;2023-07-30T01:13:04;10.57;;;7.72;;
65545;SDS011;52177;55.968;37.498;2023-07-30T01:13:38;11.60;;;8.05;;
65545;SDS011;52177;55.968;37.498;2023-07-30T01:14:09;11.95;;;7.88;;
65545;SDS011;52177;55.968;37.498;2023-07-30T01:14:40;8.20;;;7.35;;
65545;SDS011;52177;55.968;37.498;2023-07-30T01:15:11;11.73;;;8.00;;
65545;SDS011;52177;55.968;37.498;2023-07-30T01:15:43;8.60;;;7.43;;
65545;SDS011;52177;55.968;37.498;2023-07-30T01:16:15;8.88;;;7.65;;
65545;SDS011;52177;55.968;37.498;2023-07-30T01:16:45;9.10;;;8.18;;
65545;SDS011;52177;55.968;37.498;2023-07-30T01:17:16;9.18;;;8.00;;
65545;SDS011;52177;55.968;37.498;2023-07-30T01:17:46;8.70;;;7.55;;
65545;SDS011;52177;55.968;37.498;2023-07-30T01:18:17;11.88;;;7.70;;
65545;SDS011;52177;55.968;37.498;2023-07-30T01:18:47;10.25;;;8.05;;
65545;SDS011;52177;55.968;37.498;2023-07-30T01:19:18;11.10;;;7.28;;
65545;SDS011;52177;55.968;37.498;2023-07-30T01:19:49;9.70;;;8.13;;
65545;SDS011;52177;55.968;37.498;2023-07-30T01:20:24;11.18;;;7.70;;
65545;SDS011;52177;55.968;37.498;2023-07-30T01:20:59;10.57;;;8.57;;
65545;SDS011;52177;55.968;37.498;2023-07-30T01:21:33;10.43;;;7.00;;
65545;SDS011;52177;55.968;37.498;2023-07-30T01:22:04;8.02;;;7.28;;
65545;SDS011;52177;55.968;37.498;2023-07-30T01:22:35;10.68;;;7.85;;
65545;SDS011;52177;55.968;37.498;2023-07-30T01:23:05;10.02;;;7.85;;
65545;SDS011;52177;55.968;37.498;2023-07-30T01:23:36;10.63;;;7.40;;
65545;SDS011;52177;55.968;37.498;2023-07-30T01:24:06;8.27;;;6.85;;
65545;SDS011;52177;55.968;37.498;2023-07-30T01:24:37;8.70;;;7.25;;
65545;SDS011;52177;55.968;37.498;2023-07-30T01:25:07;7.68;;;6.80;;
65545;SDS011;52177;55.968;37.498;2023-07-30T01:25:38;9.43;;;7.20;;
65545;SDS011;52177;55.968;37.498;2023-07-30T01:26:12;9.15;;;7.32;;
65545;SDS011;52177;55.968;37.498;2023-07-30T01:27:33;9.98;;;7.20;;
65545;SDS011;52177;55.968;37.498;2023-07-30T01:28:09;8.05;;;6.88;;
65545;SDS011;52177;55.968;37.498;2023-07-30T01:28:48;9.73;;;7.70;;
65545;SDS011;52177;55.968;37.498;2023-07-30T01:29:22;9.30;;;7.60;;
65545;SDS011;52177;55.968;37.498;2023-07-30T01:30:06;7.95;;;7.15;;
65545;SDS011;52177;55.968;37.498;2023-07-30T01:30:42;9.45;;;7.45;;
65545;SDS011;52177;55.968;37.498;2023-07-30T01:31:15;10.32;;;7.97;;
65545;SDS011;52177;55.968;37.498;2023-07-30T01:31:50;9.48;;;7.55;;
65545;SDS011;52177;55.968;37.498;2023-07-30T01:32:26;9.50;;;7.60;;
65545;SDS011;52177;55.968;37.498;2023-07-30T01:32:58;12.07;;;7.45;;
65545;SDS011;52177;55.968;37.498;2023-07-30T01:33:29;8.32;;;7.40;;
65545;SDS011;52177;55.968;37.498;2023-07-30T01:34:00;7.65;;;6.95;;
65545;SDS011;52177;55.968;37.498;2023-07-30T01:34:36;8.00;;;7.20;;
65545;SDS011;52177;55.968;37.498;2023-07-30T01:35:09;9.88;;;7.57;;
65545;SDS011;52177;55.968;37.498;2023-07-30T01:35:42;8.02;;;7.18;;
65545;SDS011;52177;55.968;37.498;2023-07-30T01:36:15;7.68;;;6.82;;
65545;SDS011;52177;55.968;37.498;2023-07-30T01:36:46;9.30;;;7.10;;
65545;SDS011;52177;55.968;37.498;2023-07-30T01:37:19;8.25;;;7.28;;
65545;SDS011;52177;55.968;37.498;2023-07-30T01:37:50;10.57;;;7.00;;
65545;SDS011;52177;55.968;37.498;2023-07-30T01:38:21;7.82;;;7.05;;
65545;SDS011;52177;55.968;37.498;2023-07-30T01:38:52;7.72;;;7.03;;
65545;SDS011;52177;55.968;37.498;2023-07-30T01:39:23;8.25;;;7.05;;
65545;SDS011;52177;55.968;37.498;2023-07-30T01:39:54;10.25;;;7.07;;
65545;SDS011;52177;55.968;37.498;2023-07-30T01:40:26;8.95;;;6.80;;
65545;SDS011;52177;55.968;37.498;2023-07-30T01:40:56;8.63;;;7.32;;
65545;SDS011;52177;55.968;37.498;2023-07-30T01:41:27;10.13;;;7.45;;
65545;SDS011;52177;55.968;37.498;2023-07-30T01:41:57;8.23;;;6.10;;
65545;SDS011;52177;55.968;37.498;2023-07-30T01:42:31;10.30;;;6.60;;
65545;SDS011;52177;55.968;37.498;2023-07-30T01:43:01;8.93;;;7.28;;
65545;SDS011;52177;55.968;37.498;2023-07-30T01:43:32;8.63;;;7.18;;
65545;SDS011;52177;55.968;37.498;2023-07-30T01:44:02;8.98;;;7.05;;
65545;SDS011;52177;55.968;37.498;2023-07-30T01:44:32;8.13;;;6.82;;
65545;SDS011;52177;55.968;37.498;2023-07-30T01:45:03;8.60;;;7.07;;
65545;SDS011;52177;55.968;37.498;2023-07-30T01:45:35;9.90;;;7.38;;
65545;SDS011;52177;55.968;37.498;2023-07-30T01:46:05;9.77;;;7.22;;
65545;SDS011;52177;55.968;37.498;2023-07-30T01:46:36;10.20;;;7.45;;
65545;SDS011;52177;55.968;37.498;2023-07-30T01:47:06;8.93;;;7.03;;
65545;SDS011;52177;55.968;37.498;2023-07-30T01:47:37;9.73;;;7.55;;
65545;SDS011;52177;55.968;37.498;2023-07-30T01:48:07;9.77;;;6.85;;
65545;SDS011;52177;55.968;37.498;2023-07-30T01:48:38;12.25;;;6.68;;
65545;SDS011;52177;55.968;37.498;2023-07-30T01:49:08;8.77;;;6.70;;
65545;SDS011;52177;55.968;37.498;2023-07-30T01:49:39;9.68;;;7.40;;
65545;SDS011;52177;55.968;37.498;2023-07-30T01:50:09;8.70;;;6.97;;
65545;SDS011;52177;55.968;37.498;2023-07-30T01:50:40;11.13;;;6.97;;
65545;SDS011;52177;55.968;37.498;2023-07-30T01:51:10;9.23;;;7.00;;
65545;SDS011;52177;55.968;37.498;2023-07-30T01:51:40;8.80;;;6.93;;
65545;SDS011;52177;55.968;37.498;2023-07-30T01:52:11;8.65;;;6.50;;
65545;SDS011;52177;55.968;37.498;2023-07-30T01:52:41;8.07;;;6.72;;
65545;SDS011;52177;55.968;37.498;2023-07-30T01:53:12;8.15;;;6.90;;
65545;SDS011;52177;55.968;37.498;2023-07-30T01:53:42;7.60;;;6.80;;
65545;SDS011;52177;55.968;37.498;2023-07-30T01:54:13;8.48;;;6.80;;
65545;SDS011;52177;55.968;37.498;2023-07-30T01:54:43;8.18;;;6.22;;
65545;SDS011;52177;55.968;37.498;2023-07-30T01:55:13;9.00;;;6.53;;
65545;SDS011;52177;55.968;37.498;2023-07-30T01:55:44;11.18;;;6.60;;
65545;SDS011;52177;55.968;37.498;2023-07-30T01:56:16;10.65;;;6.53;;
65545;SDS011;52177;55.968;37.498;2023-07-30T01:56:47;7.35;;;6.35;;
65545;SDS011;52177;55.968;37.498;2023-07-30T01:57:18;13.02;;;7.13;;
65545;SDS011;52177;55.968;37.498;2023-07-30T01:57:48;7.40;;;6.55;;
65545;SDS011;52177;55.968;37.498;2023-07-30T01:58:19;10.75;;;6.78;;
65545;SDS011;52177;55.968;37.498;2023-07-30T01:58:49;10.60;;;6.80;;
65545;SDS011;52177;55.968;37.498;2023-07-30T01:59:19;7.75;;;6.32;;
65545;SDS011;52177;55.968;37.498;2023-07-30T01:59:50;10.18;;;7.65;;
65545;SDS011;52177;55.968;37.498;2023-07-30T02:00:20;8.80;;;6.55;;
65545;SDS011;52177;55.968;37.498;2023-07-30T02:00:51;7.43;;;6.53;;
65545;SDS011;52177;55.968;37.498;2023-07-30T02:01:21;7.53;;;6.72;;
65545;SDS011;52177;55.968;37.498;2023-07-30T02:01:51;8.38;;;6.57;;
65545;SDS011;52177;55.968;37.498;2023-07-30T02:02:22;9.45;;;6.75;;
65545;SDS011;52177;55.968;37.498;2023-07-30T02:02:52;7.22;;;6.57;;
65545;SDS011;52177;55.968;37.498;2023-07-30T02:03:23;7.97;;;7.03;;
65545;SDS011;52177;55.968;37.498;2023-07-30T02:03:53;7.85;;;7.05;;
65545;SDS011;52177;55.968;37.498;2023-07-30T02:04:23;6.90;;;6.20;;
65545;SDS011;52177;55.968;37.498;2023-07-30T02:04:54;13.90;;;6.68;;
65545;SDS011;52177;55.968;37.498;2023-07-30T02:05:24;8.60;;;6.80;;
65545;SDS011;52177;55.968;37.498;2023-07-30T02:05:54;9.85;;;6.90;;
65545;SDS011;52177;55.968;37.498;2023-07-30T02:06:25;7.43;;;6.60;;
65545;SDS011;52177;55.968;37.498;2023-07-30T02:06:55;8.05;;;7.25;;
65545;SDS011;52177;55.968;37.498;2023-07-30T02:07:26;13.18;;;7.00;;
65545;SDS011;52177;55.968;37.498;2023-07-30T02:07:57;11.05;;;7.18;;
65545;SDS011;52177;55.968;37.498;2023-07-30T02:08:27;8.85;;;6.65;;
65545;SDS011;52177;55.968;37.498;2023-07-30T02:08:58;8.88;;;6.55;;
65545;SDS011;52177;55.968;37.498;2023-07-30T02:09:28;7.53;;;6.78;;
65545;SDS011;52177;55.968;37.498;2023-07-30T02:09:59;8.00;;;7.30;;
65545;SDS011;52177;55.968;37.498;2023-07-30T02:10:30;11.00;;;7.60;;
65545;SDS011;52177;55.968;37.498;2023-07-30T02:11:00;11.18;;;7.25;;
65545;SDS011;52177;55.968;37.498;2023-07-30T02:11:31;8.52;;;6.00;;
65545;SDS011;52177;55.968;37.498;2023-07-30T02:12:01;9.20;;;7.20;;
65545;SDS011;52177;55.968;37.498;2023-07-30T02:12:31;12.85;;;7.15;;
65545;SDS011;52177;55.968;37.498;2023-07-30T02:13:02;9.05;;;6.85;;
65545;SDS011;52177;55.968;37.498;2023-07-30T02:13:32;14.73;;;7.00;;
65545;SDS011;52177;55.968;37.498;2023-07-30T02:14:03;8.15;;;6.30;;
65545;SDS011;52177;55.968;37.498;2023-07-30T02:14:33;7.15;;;6.32;;
65545;SDS011;52177;55.968;37.498;2023-07-30T02:15:04;7.85;;;7.05;;
65545;SDS011;52177;55.968;37.498;2023-07-30T02:15:39;8.65;;;7.35;;
65545;SDS011;52177;55.968;37.498;2023-07-30T02:16:10;8.80;;;7.20;;
65545;SDS011;52177;55.968;37.498;2023-07-30T02:16:41;8.15;;;6.75;;
65545;SDS011;52177;55.968;37.498;2023-07-30T02:17:11;8.00;;;7.15;;
65545;SDS011;52177;55.968;37.498;2023-07-30T02:17:41;8.52;;;7.30;;
65545;SDS011;52177;55.968;37.498;2023-07-30T02:18:12;7.97;;;7.15;;
65545;SDS011;52177;55.968;37.498;2023-07-30T02:18:43;9.00;;;6.75;;
65545;SDS011;52177;55.968;37.498;2023-07-30T02:19:13;8.52;;;6.88;;
65545;SDS011;52177;55.968;37.498;2023-07-30T02:19:44;10.98;;;6.60;;
65545;SDS011;52177;55.968;37.498;2023-07-30T02:20:14;7.22;;;6.53;;
65545;SDS011;52177;55.968;37.498;2023-07-30T02:20:44;9.00;;;6.10;;
65545;SDS011;52177;55.968;37.498;2023-07-30T02:21:15;8.50;;;7.47;;
65545;SDS011;52177;55.968;37.498;2023-07-30T02:21:45;6.85;;;6.25;;
65545;SDS011;52177;55.968;37.498;2023-07-30T02:22:16;10.82;;;7.28;;
65545;SDS011;52177;55.968;37.498;2023-07-30T02:22:46;8.20;;;6.60;;
65545;SDS011;52177;55.968;37.498;2023-07-30T02:23:16;8.02;;;7.20;;
65545;SDS011;52177;55.968;37.498;2023-07-30T02:23:47;7.50;;;6.80;;
65545;SDS011;52177;55.968;37.498;2023-07-30T02:24:17;8.10;;;7.40;;
65545;SDS011;52177;55.968;37.498;2023-07-30T02:24:48;8.27;;;7.45;;
65545;SDS011;52177;55.968;37.498;2023-07-30T02:25:18;8.55;;;6.78;;
65545;SDS011;52177;55.968;37.498;2023-07-30T02:25:49;8.05;;;7.25;;
65545;SDS011;52177;55.968;37.498;2023-07-30T02:26:19;10.30;;;7.10;;
65545;SDS011;52177;55.968;37.498;2023-07-30T02:26:49;7.20;;;6.18;;
65545;SDS011;52177;55.968;37.498;2023-07-30T02:27:20;7.07;;;6.38;;
65545;SDS011;52177;55.968;37.498;2023-07-30T02:27:50;9.73;;;7.10;;
65545;SDS011;52177;55.968;37.498;2023-07-30T02:28:21;7.85;;;7.05;;
65545;SDS011;52177;55.968;37.498;2023-07-30T02:28:51;8.57;;;7.00;;
65545;SDS011;52177;55.968;37.498;2023-07-30T02:29:21;7.70;;;7.00;;
65545;SDS011;52177;55.968;37.498;2023-07-30T02:29:52;8.80;;;6.82;;
65545;SDS011;52177;55.968;37.498;2023-07-30T02:30:22;8.68;;;6.53;;
65545;SDS011;52177;55.968;37.498;2023-07-30T02:30:52;8.43;;;7.00;;
65545;SDS011;52177;55.968;37.498;2023-07-30T02:31:23;8.55;;;6.97;;
65545;SDS011;52177;55.968;37.498;2023-07-30T02:31:53;6.90;;;6.22;;
65545;SDS011;52177;55.968;37.498;2023-07-30T02:32:24;8.27;;;7.38;;
65545;SDS011;52177;55.968;37.498;2023-07-30T02:32:54;7.93;;;7.13;;
65545;SDS011;52177;55.968;37.498;2023-07-30T02:33:25;9.45;;;7.40;;
65545;SDS011;52177;55.968;37.498;2023-07-30T02:33:55;8.75;;;7.13;;
65545;SDS011;52177;55.968;37.498;2023-07-30T02:34:25;8.30;;;6.88;;
65545;SDS011;52177;55.968;37.498;2023-07-30T02:34:56;9.45;;;7.05;;
65545;SDS011;52177;55.968;37.498;2023-07-30T02:35:26;8.73;;;7.80;;
65545;SDS011;52177;55.968;37.498;2023-07-30T02:35:56;8.57;;;7.68;;
65545;SDS011;52177;55.968;37.498;2023-07-30T02:36:27;9.48;;;7.43;;
65545;SDS011;52177;55.968;37.498;2023-07-30T02:36:57;8.75;;;7.65;;
65545;SDS011;52177;55.968;37.498;2023-07-30T02:37:28;10.10;;;7.45;;
65545;SDS011;52177;55.968;37.498;2023-07-30T02:37:58;8.20;;;7.40;;
65545;SDS011;52177;55.968;37.498;2023-07-30T02:38:28;7.90;;;7.10;;
65545;SDS011;52177;55.968;37.498;2023-07-30T02:38:59;8.65;;;7.13;;
65545;SDS011;52177;55.968;37.498;2023-07-30T02:39:29;11.70;;;7.55;;
65545;SDS011;52177;55.968;37.498;2023-07-30T02:39:59;8.85;;;6.60;;
65545;SDS011;52177;55.968;37.498;2023-07-30T02:40:31;8.73;;;7.35;;
65545;SDS011;52177;55.968;37.498;2023-07-30T02:41:01;8.70;;;6.70;;
65545;SDS011;52177;55.968;37.498;2023-07-30T02:41:32;10.80;;;7.47;;
65545;SDS011;52177;55.968;37.498;2023-07-30T02:42:02;9.32;;;7.55;;
65545;SDS011;52177;55.968;37.498;2023-07-30T02:42:33;8.40;;;7.60;;
65545;SDS011;52177;55.968;37.498;2023-07-30T02:43:03;11.65;;;7.70;;
65545;SDS011;52177;55.968;37.498;2023-07-30T02:43:34;8.27;;;7.47;;
65545;SDS011;52177;55.968;37.498;2023-07-30T02:44:04;7.85;;;7.05;;
65545;SDS011;52177;55.968;37.498;2023-07-30T02:44:34;9.45;;;7.18;;
65545;SDS011;52177;55.968;37.498;2023-07-30T02:45:05;11.18;;;7.15;;
65545;SDS011;52177;55.968;37.498;2023-07-30T02:45:36;8.77;;;7.40;;
65545;SDS011;52177;55.968;37.498;2023-07-30T02:46:06;8.23;;;7.35;;
65545;SDS011;52177;55.968;37.498;2023-07-30T02:46:37;9.68;;;7.43;;
65545;SDS011;52177;55.968;37.498;2023-07-30T02:47:07;7.50;;;6.80;;
65545;SDS011;52177;55.968;37.498;2023-07-30T02:47:37;7.93;;;7.13;;
65545;SDS011;52177;55.968;37.498;2023-07-30T02:48:08;10.73;;;7.00;;
65545;SDS011;52177;55.968;37.498;2023-07-30T02:48:38;8.57;;;7.20;;
65545;SDS011;52177;55.968;37.498;2023-07-30T02:49:08;9.32;;;7.68;;
65545;SDS011;52177;55.968;37.498;2023-07-30T02:49:39;10.43;;;6.80;;
65545;SDS011;52177;55.968;37.498;2023-07-30T02:50:09;7.57;;;6.88;;
65545;SDS011;52177;55.968;37.498;2023-07-30T02:50:40;7.50;;;6.80;;
65545;SDS011;52177;55.968;37.498;2023-07-30T02:51:10;9.85;;;7.90;;
65545;SDS011;52177;55.968;37.498;2023-07-30T02:51:41;8.93;;;7.25;;
65545;SDS011;52177;55.968;37.498;2023-07-30T02:52:13;8.00;;;6.88;;
65545;SDS011;52177;55.968;37.498;2023-07-30T02:52:43;8.00;;;7.20;;
65545;SDS011;52177;55.968;37.498;2023-07-30T02:53:14;10.27;;;6.82;;
65545;SDS011;52177;55.968;37.498;2023-07-30T02:53:44;10.70;;;7.28;;
65545;SDS011;52177;55.968;37.498;2023-07-30T02:54:15;10.80;;;6.97;;
65545;SDS011;52177;55.968;37.498;2023-07-30T02:54:50;8.77;;;7.70;;
65545;SDS011;52177;55.968;37.498;2023-07-30T02:55:21;9.35;;;6.85;;
65545;SDS011;52177;55.968;37.498;2023-07-30T02:55:51;11.30;;;7.70;;
65545;SDS011;52177;55.968;37.498;2023-07-30T02:56:22;9.10;;;6.68;;
65545;SDS011;52177;55.968;37.498;2023-07-30T02:56:52;8.93;;;7.10;;
65545;SDS011;52177;55.968;37.498;2023-07-30T02:57:23;7.80;;;6.90;;
65545;SDS011;52177;55.968;37.498;2023-07-30T02:57:53;9.15;;;7.05;;
65545;SDS011;52177;55.968;37.498;2023-07-30T02:58:23;8.63;;;6.72;;
65545;SDS011;52177;55.968;37.498;2023-07-30T02:58:54;9.25;;;6.95;;
65545;SDS011;52177;55.968;37.498;2023-07-30T02:59:24;7.60;;;6.90;;
65545;SDS011;52177;55.968;37.498;2023-07-30T02:59:54;8.00;;;7.20;;
65545;SDS011;52177;55.968;37.498;2023-07-30T03:00:25;7.95;;;7.15;;
65545;SDS011;52177;55.968;37.498;2023-07-30T03:00:55;8.57;;;7.25;;
65545;SDS011;52177;55.968;37.498;2023-07-30T03:01:35;7.85;;;7.05;;
65545;SDS011;52177;55.968;37.498;2023-07-30T03:02:06;7.10;;;6.40;;
65545;SDS011;52177;55.968;37.498;2023-07-30T03:02:36;8.63;;;6.35;;
65545;SDS011;52177;55.968;37.498;2023-07-30T03:03:07;7.90;;;7.10;;